Time;durP1;ratioP1;P1;durP2;ratioP2;P2;SDS_P1;SDS_P2;PMS_P1;PMS_P2;Temp;Humidity;BMP_temperature;BMP_pressure;BME280_temperature;BME280_humidity;BME280_pressure;Samples;Min_cycle;Max_cycle;Signal;HPM_P1;HPM_P2
2021/08/18 00:00:40;;;;;;;3.15;2.17;;;14.30;99.90;;;;;;5035132;28;20186;-67
2021/08/18 00:03:07;;;;;;;0.98;0.43;;;14.20;99.90;;;;;;5036062;28;20348;-67
2021/08/18 00:05:33;;;;;;;1.27;1.17;;;14.30;99.90;;;;;;5035071;28;20319;-67
2021/08/18 00:08:00;;;;;;;1.08;1.02;;;14.20;99.90;;;;;;5035055;28;20682;-67
2021/08/18 00:10:29;;;;;;;0.85;0.52;;;14.20;99.90;;;;;;5035036;28;20189;-67
2021/08/18 00:12:56;;;;;;;2.47;2.28;;;14.20;99.90;;;;;;5035019;28;20195;-66
2021/08/18 00:15:23;;;;;;;1.95;1.05;;;14.10;99.90;;;;;;5035826;28;20178;-66
2021/08/18 00:17:49;;;;;;;0.73;0.73;;;14.20;99.90;;;;;;5035787;28;20195;-66
2021/08/18 00:20:15;;;;;;;1.63;1.42;;;14.20;99.90;;;;;;5035775;28;20186;-66
2021/08/18 00:22:41;;;;;;;1.53;1.43;;;14.20;99.90;;;;;;5035887;28;20190;-64
2021/08/18 00:25:07;;;;;;;1.80;1.70;;;14.30;99.90;;;;;;5036045;28;20243;-64
2021/08/18 00:27:32;;;;;;;3.55;1.45;;;14.20;99.90;;;;;;5035843;28;20573;-64
2021/08/18 00:29:58;;;;;;;0.30;0.20;;;14.30;99.90;;;;;;5036306;28;20243;-64
2021/08/18 00:32:24;;;;;;;0.30;0.20;;;14.20;99.90;;;;;;5036520;28;20177;-64
2021/08/18 00:34:50;;;;;;;4.67;2.93;;;14.20;99.90;;;;;;5036165;28;20197;-64
2021/08/18 00:37:15;;;;;;;0.40;0.30;;;14.20;99.90;;;;;;5036426;28;20209;-64
2021/08/18 00:39:41;;;;;;;4.00;1.23;;;14.30;99.90;;;;;;5036167;28;20194;-64
2021/08/18 00:42:07;;;;;;;2.10;2.00;;;14.20;99.90;;;;;;5038710;28;20487;-65
2021/08/18 00:44:36;;;;;;;0.40;0.40;;;14.20;99.90;;;;;;5038465;28;20455;-65
2021/08/18 00:47:04;;;;;;;1.02;1.02;;;14.20;99.90;;;;;;5037248;28;20173;-64
2021/08/18 00:49:30;;;;;;;0.30;0.10;;;14.20;99.90;;;;;;5038145;28;20236;-64
2021/08/18 00:51:57;;;;;;;0.60;0.43;;;14.30;99.90;;;;;;5038129;28;20611;-64
2021/08/18 00:54:24;;;;;;;0.30;0.20;;;14.20;99.90;;;;;;5039508;28;20178;-64
2021/08/18 00:56:50;;;;;;;0.40;0.30;;;14.20;99.90;;;;;;5038942;28;20186;-64
2021/08/18 00:59:16;;;;;;;1.10;1.02;;;14.30;99.90;;;;;;5037559;28;20228;-64
2021/08/18 01:01:43;;;;;;;0.50;0.50;;;14.20;99.90;;;;;;5036563;28;20220;-64
2021/08/18 01:04:09;;;;;;;0.30;0.20;;;14.20;99.90;;;;;;5035971;28;20220;-64
2021/08/18 01:06:40;;;;;;;0.93;0.80;;;14.20;99.90;;;;;;5036966;28;20510;-64
2021/08/18 01:09:12;;;;;;;0.60;0.55;;;14.20;99.90;;;;;;5035846;28;20424;-64
2021/08/18 01:11:39;;;;;;;2.60;1.88;;;14.20;99.90;;;;;;5034735;28;20226;-64
2021/08/18 01:14:05;;;;;;;0.80;0.77;;;14.20;99.90;;;;;;5035043;28;20186;-64
2021/08/18 01:16:36;;;;;;;1.70;1.50;;;14.20;99.90;;;;;;5034666;28;20633;-64
2021/08/18 01:19:03;;;;;;;0.30;0.20;;;14.30;99.90;;;;;;5034733;28;20178;-64
2021/08/18 01:21:30;;;;;;;0.73;0.73;;;14.30;99.90;;;;;;5034818;28;20244;-63
2021/08/18 01:23:56;;;;;;;1.10;1.05;;;14.30;99.90;;;;;;5033875;28;20220;-63
2021/08/18 01:26:22;;;;;;;0.30;0.20;;;14.30;99.90;;;;;;5034465;28;20611;-63
2021/08/18 01:28:50;;;;;;;1.67;1.57;;;14.30;99.90;;;;;;5034272;28;20178;-63
2021/08/18 01:31:16;;;;;;;0.40;0.30;;;14.30;99.90;;;;;;5034561;28;20178;-63
2021/08/18 01:33:41;;;;;;;2.42;2.22;;;14.30;99.90;;;;;;5034722;28;20182;-63
2021/08/18 01:36:07;;;;;;;1.33;0.60;;;14.30;99.90;;;;;;5034411;28;20192;-64
2021/08/18 01:38:35;;;;;;;1.23;1.13;;;14.20;99.90;;;;;;5034218;28;20182;-64
2021/08/18 01:41:01;;;;;;;2.25;2.15;;;14.20;99.90;;;;;;5034327;28;20178;-63
2021/08/18 01:43:26;;;;;;;0.30;0.20;;;14.20;99.90;;;;;;5033542;28;20742;-63
2021/08/18 01:45:52;;;;;;;0.40;0.40;;;14.30;99.90;;;;;;5034421;28;20181;-63
2021/08/18 01:48:29;;;;;;;0.30;0.20;;;14.30;99.90;;;;;;5033193;28;20181;-63
2021/08/18 01:50:56;;;;;;;0.30;0.20;;;14.20;99.90;;;;;;5033563;28;20177;-63
2021/08/18 01:53:27;;;;;;;0.50;0.50;;;14.10;99.90;;;;;;5034388;28;20185;-62
2021/08/18 01:55:54;;;;;;;4.32;1.40;;;14.20;99.90;;;;;;5034331;28;20185;-63
2021/08/18 01:58:20;;;;;;;0.80;0.55;;;14.20;99.90;;;;;;5034377;28;20189;-63
2021/08/18 02:00:45;;;;;;;0.30;0.10;;;14.20;99.90;;;;;;5034431;28;20268;-63
2021/08/18 02:03:11;;;;;;;0.77;0.77;;;14.10;99.90;;;;;;5034065;28;20201;-63
2021/08/18 02:05:37;;;;;;;2.03;1.30;;;14.10;99.90;;;;;;5034293;28;20174;-63
2021/08/18 02:08:03;;;;;;;4.30;0.90;;;14.00;99.90;;;;;;5032945;28;20182;-62
2021/08/18 02:10:29;;;;;;;0.30;0.20;;;14.00;99.90;;;;;;5033276;28;20205;-63
2021/08/18 02:12:55;;;;;;;5.57;3.83;;;14.00;99.90;;;;;;5033080;28;20216;-63
2021/08/18 02:15:27;;;;;;;3.35;2.28;;;14.00;99.90;;;;;;5033712;28;20188;-63
2021/08/18 02:17:53;;;;;;;0.30;0.10;;;14.00;99.90;;;;;;5033826;28;20227;-64
2021/08/18 02:20:22;;;;;;;7.80;2.27;;;14.00;99.90;;;;;;5033535;28;20174;-64
2021/08/18 02:22:48;;;;;;;1.80;1.60;;;13.90;99.90;;;;;;5033583;28;20427;-64
2021/08/18 02:25:14;;;;;;;1.13;1.13;;;13.90;99.90;;;;;;5032757;28;20177;-64
2021/08/18 02:27:40;;;;;;;1.15;0.82;;;13.90;99.90;;;;;;5033591;28;20177;-64
2021/08/18 02:30:07;;;;;;;0.70;0.30;;;13.90;99.90;;;;;;5033523;28;20213;-64
2021/08/18 02:32:33;;;;;;;1.85;1.63;;;14.00;99.90;;;;;;5033802;28;20597;-64
2021/08/18 02:34:58;;;;;;;0.57;0.50;;;13.90;99.90;;;;;;5033736;28;20224;-64
2021/08/18 02:37:24;;;;;;;1.53;1.43;;;13.90;99.90;;;;;;5033504;28;20260;-64
2021/08/18 02:39:50;;;;;;;0.30;0.20;;;13.80;99.90;;;;;;5032383;28;20268;-64
2021/08/18 02:42:15;;;;;;;2.10;2.00;;;13.80;99.90;;;;;;5033754;28;20181;-64
2021/08/18 02:44:42;;;;;;;0.30;0.20;;;13.80;99.90;;;;;;5033371;28;20916;-64
2021/08/18 02:47:08;;;;;;;0.40;0.30;;;13.90;99.90;;;;;;5032403;28;20190;-64
2021/08/18 02:49:33;;;;;;;0.30;0.20;;;13.90;99.90;;;;;;5033327;28;20521;-64
2021/08/18 02:51:59;;;;;;;2.37;2.17;;;13.90;99.90;;;;;;5033537;28;20204;-64
2021/08/18 02:54:25;;;;;;;1.90;0.90;;;13.90;99.90;;;;;;5033475;28;20188;-64
2021/08/18 02:56:52;;;;;;;0.40;0.40;;;13.90;99.90;;;;;;5033349;28;20170;-64
2021/08/18 02:59:17;;;;;;;0.82;0.82;;;13.80;99.90;;;;;;5033297;28;20239;-65
2021/08/18 03:01:43;;;;;;;0.30;0.20;;;13.80;99.90;;;;;;5034254;28;20181;-66
2021/08/18 03:04:08;;;;;;;0.30;0.17;;;13.90;99.90;;;;;;5033564;28;20216;-65
2021/08/18 03:06:34;;;;;;;1.23;1.17;;;13.90;99.90;;;;;;5033658;28;20193;-66
2021/08/18 03:09:01;;;;;;;0.75;0.75;;;13.80;99.90;;;;;;5033711;28;20274;-66
2021/08/18 03:11:26;;;;;;;0.50;0.47;;;13.80;99.90;;;;;;5034123;28;20678;-64
2021/08/18 03:13:52;;;;;;;1.07;1.03;;;13.80;99.90;;;;;;5034099;28;20182;-62
2021/08/18 03:16:18;;;;;;;0.83;0.83;;;13.90;99.90;;;;;;5033585;28;20710;-62
2021/08/18 03:18:43;;;;;;;0.30;0.20;;;13.80;99.90;;;;;;5033546;28;20209;-62
2021/08/18 03:21:09;;;;;;;0.77;0.70;;;13.80;99.90;;;;;;5033739;28;20188;-62
2021/08/18 03:23:34;;;;;;;1.00;0.73;;;13.70;99.90;;;;;;5037414;28;20213;-62
2021/08/18 03:26:00;;;;;;;0.40;0.30;;;13.80;99.90;;;;;;5037392;28;20645;-62
2021/08/18 03:28:25;;;;;;;2.30;1.70;;;13.80;99.90;;;;;;5036886;28;20182;-62
2021/08/18 03:30:51;;;;;;;1.60;0.77;;;13.80;99.90;;;;;;5037162;28;20173;-62
2021/08/18 03:33:17;;;;;;;0.77;0.70;;;13.80;99.90;;;;;;5036046;28;20266;-62
2021/08/18 03:35:42;;;;;;;2.60;2.50;;;13.80;99.90;;;;;;5037077;28;20286;-62
2021/08/18 03:38:08;;;;;;;0.30;0.20;;;13.80;99.90;;;;;;5036728;28;20182;-66
2021/08/18 03:40:34;;;;;;;1.70;0.90;;;13.80;99.90;;;;;;5036810;28;20556;-66
2021/08/18 03:43:01;;;;;;;1.50;0.95;;;13.80;99.90;;;;;;5035604;28;20209;-65
2021/08/18 03:45:27;;;;;;;2.05;1.85;;;13.80;99.90;;;;;;5035535;28;20196;-64
2021/08/18 03:47:53;;;;;;;0.30;0.20;;;13.80;99.90;;;;;;5035171;28;20181;-64
2021/08/18 03:50:19;;;;;;;0.50;0.50;;;13.80;99.90;;;;;;5035253;28;20533;-64
2021/08/18 03:52:45;;;;;;;0.65;0.65;;;13.80;99.90;;;;;;5035494;28;20181;-64
2021/08/18 03:55:13;;;;;;;0.57;0.57;;;13.80;99.90;;;;;;5036189;28;20555;-64
2021/08/18 03:57:40;;;;;;;1.67;1.15;;;13.80;99.90;;;;;;5034942;28;20443;-64
2021/08/18 04:00:08;;;;;;;0.65;0.57;;;13.80;99.90;;;;;;5035200;28;20174;-64
2021/08/18 04:02:35;;;;;;;0.30;0.10;;;13.90;99.90;;;;;;5034945;28;20216;-65
2021/08/18 04:05:03;;;;;;;3.20;1.77;;;13.90;99.90;;;;;;5036067;28;20259;-64
2021/08/18 04:07:29;;;;;;;1.25;1.15;;;13.80;99.90;;;;;;5035846;28;20235;-64
2021/08/18 04:09:54;;;;;;;1.33;1.30;;;13.80;99.90;;;;;;5035910;28;20174;-64
2021/08/18 04:12:20;;;;;;;1.17;1.07;;;13.90;99.90;;;;;;5035929;28;20621;-65
2021/08/18 04:14:46;;;;;;;0.30;0.20;;;13.80;99.90;;;;;;5035755;28;20170;-65
2021/08/18 04:17:11;;;;;;;1.10;1.03;;;13.90;99.90;;;;;;5035741;28;20550;-64
2021/08/18 04:19:37;;;;;;;2.37;2.27;;;13.90;99.90;;;;;;5034794;28;20575;-64
2021/08/18 04:22:04;;;;;;;0.93;0.93;;;13.90;99.90;;;;;;5035704;28;20208;-64
2021/08/18 04:24:30;;;;;;;2.15;1.40;;;13.90;99.90;;;;;;5035798;28;20206;-64
2021/08/18 04:26:55;;;;;;;0.30;0.27;;;13.90;99.90;;;;;;5035547;28;20165;-67
2021/08/18 04:29:21;;;;;;;1.67;0.60;;;14.00;99.90;;;;;;5035700;28;20177;-67
2021/08/18 04:31:46;;;;;;;0.40;0.30;;;14.00;99.90;;;;;;5035721;28;20220;-65
2021/08/18 04:34:12;;;;;;;1.60;1.00;;;14.10;99.90;;;;;;5033685;28;20184;-66
2021/08/18 04:36:38;;;;;;;4.63;3.20;;;14.20;99.90;;;;;;5035303;28;20205;-66
2021/08/18 04:39:03;;;;;;;0.30;0.20;;;14.10;99.90;;;;;;5035293;28;20232;-66
2021/08/18 04:41:29;;;;;;;0.30;0.20;;;14.20;99.90;;;;;;5035520;28;20173;-65
2021/08/18 04:43:54;;;;;;;1.07;0.70;;;14.40;99.90;;;;;;5036002;28;20232;-64
2021/08/18 04:46:20;;;;;;;1.23;1.23;;;14.60;99.90;;;;;;5035319;28;20212;-64
2021/08/18 04:48:45;;;;;;;0.97;0.77;;;14.90;99.90;;;;;;5035480;28;20607;-64
2021/08/18 04:51:11;;;;;;;0.30;0.20;;;15.20;99.90;;;;;;5035387;28;20176;-65
2021/08/18 04:53:36;;;;;;;4.53;2.10;;;15.40;99.90;;;;;;5035111;28;20260;-65
2021/08/18 04:56:03;;;;;;;1.53;1.43;;;15.90;99.90;;;;;;5034150;28;20191;-66
2021/08/18 04:58:28;;;;;;;2.05;1.30;;;16.30;99.90;;;;;;5034603;28;20232;-66
2021/08/18 05:00:54;;;;;;;1.70;0.83;;;16.30;99.90;;;;;;5034550;28;20209;-66
2021/08/18 05:03:19;;;;;;;1.63;0.57;;;15.90;99.90;;;;;;5034855;28;20280;-66
2021/08/18 05:05:45;;;;;;;0.77;0.77;;;15.50;99.90;;;;;;5034877;28;20177;-66
2021/08/18 05:08:11;;;;;;;1.13;1.13;;;15.30;99.90;;;;;;5034618;28;20228;-66
2021/08/18 05:10:37;;;;;;;0.80;0.80;;;15.30;99.90;;;;;;5034908;28;20497;-66
2021/08/18 05:13:03;;;;;;;0.55;0.47;;;15.30;99.90;;;;;;5034666;28;20178;-66
2021/08/18 05:15:29;;;;;;;0.35;0.20;;;15.70;99.90;;;;;;5034755;28;20178;-66
2021/08/18 05:17:55;;;;;;;1.73;1.63;;;16.10;99.90;;;;;;5034740;28;20256;-66
2021/08/18 05:20:21;;;;;;;0.60;0.60;;;16.60;99.90;;;;;;5034412;28;20607;-66
2021/08/18 05:22:48;;;;;;;0.40;0.20;;;16.50;99.90;;;;;;5034499;28;20209;-66
2021/08/18 05:25:15;;;;;;;0.50;0.40;;;16.10;99.90;;;;;;5033478;28;20173;-66
2021/08/18 05:27:40;;;;;;;1.60;0.95;;;15.80;99.90;;;;;;5033267;28;20177;-66
2021/08/18 05:30:09;;;;;;;0.30;0.20;;;15.70;99.90;;;;;;5033240;28;20583;-65
2021/08/18 05:32:35;;;;;;;2.72;2.53;;;15.60;99.90;;;;;;5034258;28;20319;-66
2021/08/18 05:35:01;;;;;;;0.90;0.40;;;15.50;99.90;;;;;;5034136;28;20189;-66
2021/08/18 05:37:26;;;;;;;1.13;1.07;;;15.40;99.90;;;;;;5034005;28;20177;-66
2021/08/18 05:39:52;;;;;;;0.60;0.50;;;15.50;99.90;;;;;;5033835;28;20174;-66
2021/08/18 05:42:17;;;;;;;1.43;1.33;;;15.60;99.90;;;;;;5034068;28;20177;-66
2021/08/18 05:44:43;;;;;;;1.23;1.17;;;15.80;99.90;;;;;;5033173;28;20202;-66
2021/08/18 05:47:08;;;;;;;0.37;0.23;;;15.80;99.90;;;;;;5030537;28;20181;-66
2021/08/18 05:49:34;;;;;;;0.67;0.43;;;15.80;99.90;;;;;;5028683;28;20196;-66
2021/08/18 05:52:00;;;;;;;0.40;0.20;;;15.90;99.90;;;;;;5033668;28;20273;-66
2021/08/18 05:54:25;;;;;;;1.60;1.43;;;16.00;99.90;;;;;;5033756;28;20178;-66
2021/08/18 05:56:52;;;;;;;0.50;0.50;;;16.00;99.90;;;;;;5031989;28;20720;-66
2021/08/18 05:59:17;;;;;;;2.35;1.38;;;15.80;99.90;;;;;;5033329;28;20204;-66
2021/08/18 06:01:43;;;;;;;1.13;0.50;;;15.90;99.90;;;;;;5033699;28;20269;-66
2021/08/18 06:04:09;;;;;;;0.90;0.60;;;16.10;99.90;;;;;;5033588;28;20209;-66
2021/08/18 06:06:34;;;;;;;2.27;2.17;;;16.10;99.90;;;;;;5033922;28;20486;-66
2021/08/18 06:09:00;;;;;;;0.80;0.80;;;16.20;99.90;;;;;;5033402;28;20186;-66
2021/08/18 06:11:26;;;;;;;7.50;1.23;;;16.20;99.90;;;;;;5033556;28;20177;-66
2021/08/18 06:13:51;;;;;;;0.40;0.20;;;16.20;99.90;;;;;;5031117;28;21253;-66
2021/08/18 06:16:17;;;;;;;0.40;0.40;;;16.30;99.90;;;;;;5033170;28;20186;-65
2021/08/18 06:18:42;;;;;;;2.43;2.23;;;16.40;99.90;;;;;;5033052;28;20228;-65
2021/08/18 06:21:08;;;;;;;1.83;1.73;;;16.40;99.90;;;;;;5032331;28;20618;-65
2021/08/18 06:23:34;;;;;;;1.00;0.87;;;16.20;99.90;;;;;;5033267;28;20291;-65
2021/08/18 06:25:59;;;;;;;0.40;0.20;;;16.30;99.90;;;;;;5033091;28;20185;-65
2021/08/18 06:28:25;;;;;;;1.30;1.13;;;16.40;99.90;;;;;;5032352;28;20525;-65
2021/08/18 06:30:53;;;;;;;0.50;0.40;;;16.30;99.90;;;;;;5033349;28;20185;-65
2021/08/18 06:33:18;;;;;;;2.65;2.45;;;16.30;99.90;;;;;;5032514;28;20271;-65
2021/08/18 06:35:44;;;;;;;2.10;0.93;;;16.40;99.90;;;;;;5033467;28;20225;-65
2021/08/18 06:38:10;;;;;;;0.60;0.40;;;16.40;99.90;;;;;;5033366;28;20424;-66
2021/08/18 06:40:36;;;;;;;0.73;0.60;;;16.30;99.90;;;;;;5035075;28;20583;-68
2021/08/18 06:43:01;;;;;;;1.17;0.57;;;16.40;99.90;;;;;;5034310;28;20220;-68
2021/08/18 06:45:29;;;;;;;0.50;0.43;;;16.50;99.90;;;;;;5034330;28;20253;-66
2021/08/18 06:47:55;;;;;;;1.98;1.77;;;16.60;99.90;;;;;;5031731;28;20172;-63
2021/08/18 06:50:21;;;;;;;0.50;0.30;;;16.60;99.90;;;;;;5031563;28;20189;-67
2021/08/18 06:52:46;;;;;;;2.40;0.70;;;16.60;99.90;;;;;;5028702;28;20181;-67
2021/08/18 06:55:13;;;;;;;0.70;0.50;;;16.40;99.90;;;;;;5032703;28;20436;-67
2021/08/18 06:57:38;;;;;;;0.40;0.20;;;16.30;99.90;;;;;;5034400;28;20228;-67
2021/08/18 07:00:06;;;;;;;0.40;0.20;;;16.40;99.90;;;;;;5029388;28;20693;-65
2021/08/18 07:02:32;;;;;;;0.80;0.70;;;16.30;99.90;;;;;;5037377;28;20877;-65
2021/08/18 07:05:03;;;;;;;1.48;0.50;;;16.20;99.90;;;;;;5034596;28;20559;-65
2021/08/18 07:07:28;;;;;;;0.50;0.40;;;16.10;99.90;;;;;;5027817;28;20185;-68
2021/08/18 07:09:54;;;;;;;0.77;0.77;;;16.10;99.90;;;;;;5033505;28;20670;-66
2021/08/18 07:12:19;;;;;;;1.13;0.77;;;16.10;99.90;;;;;;5036538;28;20185;-65
2021/08/18 07:14:45;;;;;;;0.40;0.20;;;16.20;99.90;;;;;;5030664;28;20656;-66
2021/08/18 07:17:10;;;;;;;1.27;1.27;;;16.30;99.90;;;;;;5036953;28;20189;-65
2021/08/18 07:19:36;;;;;;;1.70;0.70;;;16.50;99.90;;;;;;5036596;28;20518;-65
2021/08/18 07:22:01;;;;;;;6.00;1.13;;;16.70;99.90;;;;;;5037020;28;20629;-65
2021/08/18 07:24:27;;;;;;;1.07;0.67;;;16.90;99.90;;;;;;5036797;28;20216;-65
2021/08/18 07:26:52;;;;;;;2.40;0.63;;;17.00;99.90;;;;;;5036853;28;20467;-65
2021/08/18 07:29:18;;;;;;;1.63;1.53;;;17.20;99.90;;;;;;5036896;28;20173;-66
2021/08/18 07:31:43;;;;;;;1.70;1.60;;;17.10;99.90;;;;;;5037636;28;20658;-68
2021/08/18 07:34:09;;;;;;;0.40;0.20;;;17.40;99.90;;;;;;5037345;28;20719;-68
2021/08/18 07:36:34;;;;;;;0.40;0.20;;;17.50;99.90;;;;;;5036630;28;20190;-66
2021/08/18 07:39:00;;;;;;;2.20;0.97;;;17.30;99.90;;;;;;5036611;28;20205;-66
2021/08/18 07:41:27;;;;;;;2.57;1.63;;;17.10;99.90;;;;;;5036754;28;20185;-68
2021/08/18 07:43:53;;;;;;;0.70;0.37;;;17.00;99.90;;;;;;5036829;28;20198;-68
2021/08/18 07:46:18;;;;;;;0.77;0.77;;;17.00;99.90;;;;;;5036817;28;20482;-67
2021/08/18 07:48:44;;;;;;;1.80;0.80;;;17.00;99.90;;;;;;5036456;28;20177;-67
2021/08/18 07:51:09;;;;;;;0.40;0.20;;;17.00;99.90;;;;;;5035704;28;20251;-71
2021/08/18 07:53:39;;;;;;;0.40;0.20;;;17.00;99.90;;;;;;5035625;28;20182;-71
2021/08/18 07:56:05;;;;;;;0.70;0.40;;;17.00;99.90;;;;;;5036706;28;20188;-68
2021/08/18 07:58:30;;;;;;;0.40;0.20;;;16.80;99.90;;;;;;5036083;28;20452;-68
2021/08/18 08:00:56;;;;;;;0.70;0.47;;;16.90;99.90;;;;;;5035800;28;20623;-67
2021/08/18 08:03:22;;;;;;;10.60;1.97;;;17.10;99.90;;;;;;5039863;28;20208;-67
2021/08/18 08:05:47;;;;;;;3.10;0.77;;;17.20;99.90;;;;;;5039509;28;20260;-67
2021/08/18 08:08:13;;;;;;;0.50;0.40;;;17.40;94.30;;;;;;5035957;28;20589;-69
2021/08/18 08:10:38;;;;;;;0.50;0.40;;;17.30;44.30;;;;;;5039612;28;20185;-69
2021/08/18 08:13:07;;;;;;;1.90;0.97;;;17.50;92.20;;;;;;5035528;28;20190;-67
2021/08/18 08:15:33;;;;;;;0.80;0.80;;;17.60;27.20;;;;;;5034281;28;20245;-68
2021/08/18 08:17:58;;;;;;;1.00;0.73;;;17.70;1.00;;;;;;5025228;28;20515;-66
2021/08/18 08:20:27;;;;;;;0.40;0.30;;;17.80;1.00;;;;;;5033047;28;20639;-65
2021/08/18 08:22:53;;;;;;;0.80;0.70;;;17.70;1.00;;;;;;5034342;28;20193;-65
2021/08/18 08:25:19;;;;;;;0.47;0.30;;;17.40;14.30;;;;;;5026768;28;20471;-65
2021/08/18 08:27:44;;;;;;;3.20;0.70;;;17.30;97.00;;;;;;5035318;28;20459;-65
2021/08/18 08:30:10;;;;;;;1.53;1.20;;;17.30;99.90;;;;;;5035185;28;20583;-66
2021/08/18 08:32:37;;;;;;;0.40;0.20;;;17.30;99.90;;;;;;5034241;28;20219;-68
2021/08/18 08:35:03;;;;;;;0.40;0.20;;;17.30;99.90;;;;;;5034252;28;20473;-67
2021/08/18 08:37:30;;;;;;;0.47;0.20;;;17.20;99.90;;;;;;5034993;28;20463;-66
2021/08/18 08:39:55;;;;;;;0.47;0.33;;;17.20;99.90;;;;;;5035023;28;21073;-67
2021/08/18 08:42:22;;;;;;;0.40;0.20;;;17.10;99.90;;;;;;5035168;28;20474;-66
2021/08/18 08:44:51;;;;;;;2.27;1.77;;;16.90;99.90;;;;;;5034927;28;20217;-66
2021/08/18 08:47:18;;;;;;;1.57;0.47;;;16.90;99.90;;;;;;5034979;28;20460;-65
2021/08/18 08:49:44;;;;;;;5.23;1.53;;;16.90;99.90;;;;;;5034655;28;20424;-67
2021/08/18 08:52:13;;;;;;;0.40;0.20;;;16.90;99.90;;;;;;5034672;28;20432;-67
2021/08/18 08:54:40;;;;;;;0.40;0.20;;;17.00;99.90;;;;;;5034821;28;20754;-70
2021/08/18 08:57:05;;;;;;;0.40;0.20;;;17.30;99.90;;;;;;5034699;28;20461;-65
2021/08/18 08:59:31;;;;;;;0.97;0.53;;;17.70;99.90;;;;;;5034611;28;20948;-66
2021/08/18 09:02:12;;;;;;;0.80;0.63;;;17.70;99.90;;;;;;5034603;28;20194;-66
2021/08/18 09:04:39;;;;;;;2.80;0.40;;;17.70;99.90;;;;;;5034528;28;20475;-66
2021/08/18 09:07:08;;;;;;;1.17;0.60;;;18.00;99.90;;;;;;5034438;28;20424;-66
2021/08/18 09:09:35;;;;;;;0.93;0.90;;;18.10;99.90;;;;;;5034444;28;20432;-66
2021/08/18 09:12:11;;;;;;;1.03;0.93;;;18.00;99.90;;;;;;5033546;28;20499;-66
2021/08/18 09:14:37;;;;;;;2.40;1.70;;;18.00;99.90;;;;;;5034374;28;20438;-67
2021/08/18 09:17:25;;;;;;;0.40;0.20;;;18.20;99.90;;;;;;5034122;28;20432;-65
2021/08/18 09:20:13;;;;;;;0.67;0.67;;;18.40;99.90;;;;;;5034008;28;20486;-64
2021/08/18 09:22:45;;;;;;;0.40;0.20;;;18.50;99.90;;;;;;5031747;28;20450;-64
2021/08/18 09:25:14;;;;;;;1.13;0.93;;;18.80;90.60;;;;;;5033411;28;20483;-64
2021/08/18 09:27:40;;;;;;;0.50;0.20;;;18.80;12.70;;;;;;5031532;28;20607;-64
2021/08/18 09:30:07;;;;;;;0.80;0.30;;;19.00;1.00;;;;;;5034416;28;20432;-65
2021/08/18 09:32:36;;;;;;;1.20;0.50;;;18.80;1.00;;;;;;5034546;28;20463;-65
2021/08/18 09:35:10;;;;;;;0.50;0.30;;;18.90;1.00;;;;;;5027023;28;20463;-64
2021/08/18 09:37:41;;;;;;;0.40;0.20;;;18.50;1.00;;;;;;5034315;28;20446;-65
2021/08/18 09:40:18;;;;;;;0.80;0.80;;;18.30;70.90;;;;;;5034207;28;20800;-66
2021/08/18 09:42:45;;;;;;;1.27;0.50;;;18.40;14.50;;;;;;5034164;28;20732;-65
2021/08/18 09:45:14;;;;;;;2.37;1.70;;;18.20;1.00;;;;;;5033824;28;20574;-64
2021/08/18 09:48:04;;;;;;;0.90;0.53;;;18.00;1.10;;;;;;5033875;28;20439;-64
2021/08/18 09:50:46;;;;;;;0.83;0.57;;;17.90;70.70;;;;;;5034183;28;20518;-65
2021/08/18 09:53:13;;;;;;;0.90;0.47;;;17.70;43.40;;;;;;5033782;28;20440;-64
2021/08/18 09:55:46;;;;;;;0.53;0.30;;;17.70;90.30;;;;;;5034688;28;20432;-65
2021/08/18 09:58:19;;;;;;;0.87;0.43;;;17.80;99.90;;;;;;5034446;28;20462;-65
2021/08/18 10:00:46;;;;;;;0.77;0.57;;;18.20;99.90;;;;;;5036129;28;20436;-69
2021/08/18 10:03:12;;;;;;;0.50;0.30;;;18.40;81.50;;;;;;5038394;28;20507;-72
2021/08/18 10:05:39;;;;;;;0.90;0.40;;;18.60;77.50;;;;;;5036393;28;20463;-71
2021/08/18 10:08:05;;;;;;;0.40;0.27;;;18.90;38.80;;;;;;5037135;28;20456;-72
2021/08/18 10:10:31;;;;;;;1.90;0.83;;;19.20;1.00;;;;;;5036375;28;20436;-67
2021/08/18 10:12:59;;;;;;;0.40;0.20;;;19.30;1.00;;;;;;5036877;28;20428;-65
2021/08/18 10:15:25;;;;;;;0.50;0.20;;;19.10;1.00;;;;;;5038051;28;20452;-65
2021/08/18 10:17:51;;;;;;;1.30;1.07;;;19.20;1.00;;;;;;5036282;28;20486;-65
2021/08/18 10:20:21;;;;;;;1.23;1.13;;;19.20;1.00;;;;;;5034049;28;20182;-64
2021/08/18 10:23:08;;;;;;;1.37;0.50;;;19.00;1.00;;;;;;5035823;28;20220;-66
2021/08/18 10:25:44;;;;;;;0.40;0.20;;;18.80;1.00;;;;;;5036431;28;20428;-66
2021/08/18 10:28:09;;;;;;;0.40;0.20;;;19.00;1.00;;;;;;5036939;28;20885;-66
2021/08/18 10:30:45;;;;;;;1.33;0.83;;;18.90;1.00;;;;;;5044374;28;20450;-67
2021/08/18 10:33:11;;;;;;;4.80;0.43;;;18.70;1.00;;;;;;5037226;28;20196;-67
2021/08/18 10:35:36;;;;;;;1.90;0.90;;;18.30;1.00;;;;;;5026603;28;20436;-67
2021/08/18 10:38:24;;;;;;;0.40;0.20;;;18.40;1.00;;;;;;5030998;28;20173;-67
2021/08/18 10:40:50;;;;;;;10.80;2.10;;;18.20;24.30;;;;;;5031886;28;20169;-67
2021/08/18 10:43:50;;;;;;;1.83;0.90;;;18.20;49.40;;;;;;5030609;28;20585;-67
2021/08/18 10:46:16;;;;;;;1.10;0.83;;;18.10;99.90;;;;;;5031793;28;20444;-67
2021/08/18 10:49:11;;;;;;;2.57;1.37;;;17.90;99.90;;;;;;5030957;28;20507;-67
2021/08/18 10:51:39;;;;;;;1.27;0.53;;;17.80;99.90;;;;;;5032724;28;20807;-65
2021/08/18 10:54:30;;;;;;;0.63;0.37;;;17.70;99.90;;;;;;5033160;28;20424;-64
2021/08/18 10:57:04;;;;;;;0.50;0.40;;;17.90;99.90;;;;;;5033306;28;20478;-65
2021/08/18 10:59:35;;;;;;;2.30;0.53;;;18.30;99.90;;;;;;5033187;28;20435;-67
2021/08/18 11:02:07;;;;;;;0.50;0.30;;;18.40;99.90;;;;;;5032399;28;20795;-67
2021/08/18 11:04:46;;;;;;;2.80;0.57;;;18.60;99.90;;;;;;5033236;28;20467;-67
2021/08/18 11:07:13;;;;;;;0.70;0.70;;;18.90;94.70;;;;;;5032940;28;20447;-67
2021/08/18 11:10:02;;;;;;;0.67;0.67;;;19.00;22.20;;;;;;5032385;28;20754;-71
2021/08/18 11:12:51;;;;;;;0.70;0.40;;;19.20;29.60;;;;;;5032729;28;20433;-67
2021/08/18 11:15:20;;;;;;;1.80;1.50;;;19.40;1.00;;;;;;5033252;28;20424;-67
2021/08/18 11:17:47;;;;;;;0.40;0.20;;;19.60;1.00;;;;;;5032897;28;20881;-67
2021/08/18 11:20:16;;;;;;;0.40;0.20;;;19.90;1.00;;;;;;5032766;28;20428;-67
2021/08/18 11:22:42;;;;;;;0.40;0.20;;;20.00;1.00;;;;;;5032901;28;20885;-67
2021/08/18 11:25:09;;;;;;;0.50;0.37;;;20.20;1.00;;;;;;5033244;28;20815;-67
2021/08/18 11:27:34;;;;;;;0.60;0.33;;;20.00;1.00;;;;;;5032983;28;20428;-66
2021/08/18 11:30:01;;;;;;;0.40;0.20;;;19.80;1.00;;;;;;5032686;28;20762;-67
2021/08/18 11:32:26;;;;;;;0.77;0.50;;;19.90;1.00;;;;;;5032004;28;20197;-66
2021/08/18 11:34:52;;;;;;;0.60;0.30;;;19.90;1.00;;;;;;5033131;28;20908;-66
2021/08/18 11:37:18;;;;;;;0.40;0.20;;;19.90;1.00;;;;;;5032983;28;20443;-66
2021/08/18 11:39:48;;;;;;;0.43;0.23;;;19.90;1.00;;;;;;5032998;28;20189;-66
2021/08/18 11:42:14;;;;;;;0.50;0.33;;;19.80;1.00;;;;;;5032970;28;20428;-66
2021/08/18 11:44:42;;;;;;;0.40;0.20;;;19.50;1.00;;;;;;5029401;28;20526;-66
2021/08/18 11:47:09;;;;;;;1.03;1.03;;;19.40;1.00;;;;;;5033449;28;20459;-64
2021/08/18 11:49:35;;;;;;;0.87;0.67;;;19.20;1.00;;;;;;5036268;28;20463;-65
2021/08/18 11:52:01;;;;;;;1.17;0.73;;;19.00;86.60;;;;;;5036130;28;20428;-64
2021/08/18 11:54:26;;;;;;;0.53;0.50;;;18.80;52.70;;;;;;5035839;28;20523;-64
2021/08/18 11:57:03;;;;;;;0.50;0.23;;;18.90;41.30;;;;;;5034735;28;20522;-64
2021/08/18 11:59:29;;;;;;;1.50;0.97;;;19.20;1.90;;;;;;5032499;28;20653;-64
2021/08/18 12:01:56;;;;;;;0.60;0.47;;;19.40;1.00;;;;;;5034532;28;20531;-63
2021/08/18 12:04:22;;;;;;;0.80;0.67;;;19.50;1.00;;;;;;5028847;28;20480;-64
2021/08/18 12:07:04;;;;;;;0.40;0.20;;;19.70;1.00;;;;;;5029181;28;20433;-64
2021/08/18 12:09:30;;;;;;;0.80;0.73;;;19.80;1.00;;;;;;5032572;28;21085;-64
2021/08/18 12:12:10;;;;;;;0.50;0.20;;;20.10;1.00;;;;;;5034467;28;20440;-64
2021/08/18 12:14:48;;;;;;;1.80;0.80;;;20.60;99.90;;;;;;5033720;28;20177;-65
2021/08/18 12:17:15;;;;;;;1.27;0.77;;;20.90;1.00;;;;;;5027538;28;20743;-64
2021/08/18 12:19:42;;;;;;;0.40;0.20;;;21.10;99.90;;;;;;5026208;28;20439;-65
2021/08/18 12:22:20;;;;;;;3.43;1.50;;;20.80;45.70;;;;;;5034874;28;20888;-64
2021/08/18 12:24:51;;;;;;;1.50;0.83;;;20.80;1.00;;;;;;5034542;28;20927;-64
2021/08/18 12:27:24;;;;;;;2.20;0.47;;;20.50;1.00;;;;;;5026959;28;20538;-64
2021/08/18 12:30:00;;;;;;;0.40;0.20;;;20.30;99.90;;;;;;5016498;28;20508;-64
2021/08/18 12:32:26;;;;;;;1.20;1.10;;;20.30;99.90;;;;;;5024356;28;20435;-64
2021/08/18 12:35:00;;;;;;;1.27;0.50;;;20.10;1.00;;;;;;5026741;28;20435;-64
2021/08/18 12:37:28;;;;;;;1.37;0.77;;;19.50;1.00;;;;;;5026526;28;20705;-63
2021/08/18 12:39:59;;;;;;;1.37;0.63;;;19.50;8.50;;;;;;5025122;28;20595;-64
2021/08/18 12:42:27;;;;;;;0.70;0.40;;;19.50;17.90;;;;;;5024727;28;20424;-66
2021/08/18 12:45:02;;;;;;;0.50;0.37;;;19.60;60.90;;;;;;5056413;28;20460;-65
2021/08/18 12:47:35;;;;;;;0.83;0.60;;;19.50;22.80;;;;;;5024239;28;20425;-65
2021/08/18 12:50:01;;;;;;;1.73;1.50;;;19.30;78.40;;;;;;5024916;28;20432;-65